createdAt,value
2022-12-03T00:02:18.203Z,2.90
2022-12-03T00:04:45.396Z,2.90
2022-12-03T00:07:12.531Z,2.90
2022-12-03T00:09:39.692Z,2.90
2022-12-03T00:12:06.933Z,2.90
2022-12-03T00:14:34.192Z,2.80
2022-12-03T00:17:01.370Z,2.90
2022-12-03T00:19:28.585Z,2.90
2022-12-03T00:21:55.735Z,2.80
2022-12-03T00:24:23.083Z,2.80
2022-12-03T00:26:50.227Z,2.80
2022-12-03T00:29:17.411Z,2.80
2022-12-03T00:31:45.480Z,2.70
2022-12-03T00:34:12.838Z,2.70
2022-12-03T00:36:41.222Z,2.70
2022-12-03T00:39:08.358Z,2.70
2022-12-03T00:41:36.073Z,2.60
2022-12-03T00:44:03.318Z,2.60
2022-12-03T00:46:30.492Z,2.60
2022-12-03T00:48:57.803Z,2.60
2022-12-03T00:51:24.975Z,2.50
2022-12-03T00:53:52.119Z,2.60
2022-12-03T00:56:19.307Z,2.60
2022-12-03T00:58:46.510Z,2.60
2022-12-03T01:01:13.747Z,2.60
2022-12-03T01:03:40.998Z,2.60
2022-12-03T01:06:08.212Z,2.50
2022-12-03T01:08:35.409Z,2.50
2022-12-03T01:11:02.619Z,2.40
2022-12-03T01:13:29.746Z,2.40
2022-12-03T01:15:56.983Z,2.40
2022-12-03T01:18:24.288Z,2.40
2022-12-03T01:20:51.440Z,2.30
2022-12-03T01:23:18.571Z,2.30
2022-12-03T01:25:45.726Z,2.30
2022-12-03T01:28:12.854Z,2.40
2022-12-03T01:31:00.071Z,2.30
2022-12-03T01:33:27.266Z,2.30
2022-12-03T01:35:54.413Z,2.20
2022-12-03T01:38:21.550Z,2.10
2022-12-03T01:40:49.839Z,2.00
2022-12-03T01:43:17.120Z,1.90
2022-12-03T01:45:44.262Z,1.90
2022-12-03T01:48:16.470Z,1.90
2022-12-03T01:50:44.322Z,1.90
2022-12-03T01:53:15.415Z,1.90
2022-12-03T01:55:48.576Z,2.00
2022-12-03T01:58:16.973Z,2.00
2022-12-03T02:00:44.140Z,2.10
2022-12-03T02:03:18.043Z,2.10
2022-12-03T02:05:45.266Z,2.10
2022-12-03T02:08:45.706Z,2.00
2022-12-03T02:11:21.626Z,2.00
2022-12-03T02:13:51.536Z,1.90
2022-12-03T02:16:18.830Z,1.90
2022-12-03T02:18:46.158Z,2.00
2022-12-03T02:21:27.717Z,2.00
2022-12-03T02:24:24.845Z,2.00
2022-12-03T02:26:52.023Z,2.00
2022-12-03T02:29:19.237Z,2.00
2022-12-03T02:31:46.656Z,2.00
2022-12-03T02:34:34.511Z,2.00
2022-12-03T02:37:03.046Z,2.00
2022-12-03T02:39:30.763Z,2.00
2022-12-03T02:42:16.765Z,1.90
2022-12-03T02:44:44.024Z,2.00
2022-12-03T02:47:11.342Z,2.00
2022-12-03T02:49:38.756Z,2.00
2022-12-03T02:52:06.022Z,1.90
2022-12-03T02:54:33.263Z,1.90
2022-12-03T02:57:00.783Z,1.90
2022-12-03T02:59:28.117Z,1.90
2022-12-03T03:01:55.763Z,1.90
2022-12-03T03:04:24.774Z,1.90
2022-12-03T03:06:52.519Z,1.90
2022-12-03T03:09:20.561Z,1.90
2022-12-03T03:11:47.724Z,1.90
2022-12-03T03:14:14.969Z,1.90
2022-12-03T03:16:42.250Z,1.90
2022-12-03T03:19:09.514Z,1.90
2022-12-03T03:21:36.730Z,1.90
2022-12-03T03:24:04.868Z,1.90
2022-12-03T03:26:32.071Z,1.90
2022-12-03T03:29:00.234Z,1.80
2022-12-03T03:31:28.704Z,1.80
2022-12-03T03:33:56.442Z,1.80
2022-12-03T03:36:24.470Z,1.80
2022-12-03T03:38:52.008Z,1.80
2022-12-03T03:41:20.662Z,1.80
2022-12-03T03:43:49.227Z,1.80
2022-12-03T03:46:18.115Z,1.90
2022-12-03T03:48:46.203Z,1.90
2022-12-03T03:51:14.008Z,1.90
2022-12-03T03:53:45.375Z,1.90
2022-12-03T03:56:12.663Z,1.90
2022-12-03T03:58:39.985Z,1.90
2022-12-03T04:01:08.686Z,1.90
2022-12-03T04:03:35.922Z,1.90
2022-12-03T04:06:04.963Z,1.90
2022-12-03T04:08:32.388Z,1.90
2022-12-03T04:11:18.002Z,1.80
2022-12-03T04:13:45.133Z,1.80
2022-12-03T04:16:12.334Z,1.80
2022-12-03T04:18:45.621Z,1.80
2022-12-03T04:21:37.363Z,1.70
2022-12-03T04:24:06.246Z,1.80
2022-12-03T04:26:52.141Z,1.70
2022-12-03T04:29:20.003Z,1.70
2022-12-03T04:32:05.992Z,1.60
2022-12-03T04:34:52.496Z,1.60
2022-12-03T04:37:20.137Z,1.50
2022-12-03T04:39:47.314Z,1.50
2022-12-03T04:42:14.815Z,1.50
2022-12-03T04:44:42.127Z,1.50
2022-12-03T04:47:12.638Z,1.50
2022-12-03T04:49:47.347Z,1.50
2022-12-03T04:52:16.223Z,1.40
2022-12-03T04:54:43.814Z,1.40
2022-12-03T04:57:11.907Z,1.40
2022-12-03T04:59:39.567Z,1.40
2022-12-03T05:02:07.234Z,1.40
2022-12-03T05:04:34.553Z,1.40
2022-12-03T05:07:01.839Z,1.40
2022-12-03T05:09:29.006Z,1.40
2022-12-03T05:11:56.223Z,1.40
2022-12-03T05:14:23.519Z,1.40
2022-12-03T05:16:50.690Z,1.40
2022-12-03T05:19:17.930Z,1.40
2022-12-03T05:21:45.060Z,1.50
2022-12-03T05:24:12.234Z,1.50
2022-12-03T05:26:39.354Z,1.50
2022-12-03T05:29:06.601Z,1.60
2022-12-03T05:31:33.718Z,1.50
2022-12-03T05:34:00.881Z,1.60
2022-12-03T05:36:28.046Z,1.60
2022-12-03T05:38:55.206Z,1.60
2022-12-03T05:41:41.124Z,1.60
2022-12-03T05:44:08.312Z,1.50
2022-12-03T05:46:35.743Z,1.50
2022-12-03T05:49:02.997Z,1.50
2022-12-03T05:51:30.137Z,1.50
2022-12-03T05:53:57.597Z,1.50
2022-12-03T05:56:24.774Z,1.50
2022-12-03T05:58:51.906Z,1.50
2022-12-03T06:01:19.074Z,1.60
2022-12-03T06:03:46.299Z,1.60
2022-12-03T06:06:13.557Z,1.60
2022-12-03T06:08:40.696Z,1.70
2022-12-03T06:11:07.850Z,1.70
2022-12-03T06:13:34.995Z,1.70
2022-12-03T06:16:02.275Z,1.70
2022-12-03T06:18:29.450Z,1.70
2022-12-03T06:20:56.557Z,1.70
2022-12-03T06:23:23.711Z,1.70
2022-12-03T06:25:50.886Z,1.70
2022-12-03T06:28:18.034Z,1.70
2022-12-03T06:30:45.255Z,1.70
2022-12-03T06:33:12.492Z,1.70
2022-12-03T06:35:39.656Z,1.70
2022-12-03T06:38:06.977Z,1.70
2022-12-03T06:40:34.117Z,1.70
2022-12-03T06:43:01.282Z,1.70
2022-12-03T06:45:28.430Z,1.70
2022-12-03T06:47:55.581Z,1.70
2022-12-03T06:50:22.722Z,1.70
2022-12-03T06:52:49.875Z,1.70
2022-12-03T06:55:17.085Z,1.60
2022-12-03T06:57:44.322Z,1.70
2022-12-03T07:00:12.308Z,1.70
2022-12-03T07:02:39.497Z,1.70
2022-12-03T07:05:07.818Z,1.70
2022-12-03T07:07:35.076Z,1.70
2022-12-03T07:10:02.673Z,1.70
2022-12-03T07:12:30.056Z,1.80
2022-12-03T07:14:57.367Z,1.70
2022-12-03T07:17:24.659Z,1.70
2022-12-03T07:19:51.811Z,1.70
2022-12-03T07:22:18.968Z,1.70
2022-12-03T07:24:46.146Z,1.80
2022-12-03T07:27:13.262Z,1.80
2022-12-03T07:29:40.418Z,1.80
2022-12-03T07:32:07.543Z,1.80
2022-12-03T07:34:34.693Z,1.90
2022-12-03T07:37:01.872Z,1.90
2022-12-03T07:39:29.049Z,1.90
2022-12-03T07:41:56.218Z,1.90
2022-12-03T07:44:23.396Z,2.00
2022-12-03T07:46:50.670Z,1.90
2022-12-03T07:49:17.967Z,1.90
2022-12-03T07:51:53.582Z,1.90
2022-12-03T07:54:21.536Z,1.90
2022-12-03T07:56:48.715Z,1.90
2022-12-03T07:59:17.805Z,1.90
2022-12-03T08:01:45.343Z,1.90
2022-12-03T08:04:14.620Z,1.90
2022-12-03T08:06:42.072Z,1.90
2022-12-03T08:09:13.196Z,1.90
2022-12-03T08:11:45.044Z,1.90
2022-12-03T08:14:14.268Z,1.90
2022-12-03T08:16:43.080Z,1.90
2022-12-03T08:19:17.877Z,2.00
2022-12-03T08:21:45.401Z,2.00
2022-12-03T08:24:17.037Z,1.90
2022-12-03T08:26:45.550Z,1.90
2022-12-03T08:29:15.166Z,1.90
2022-12-03T08:31:47.199Z,1.90
2022-12-03T08:34:27.414Z,1.90
2022-12-03T08:37:01.794Z,2.00
2022-12-03T08:39:39.285Z,2.00
2022-12-03T08:42:35.447Z,2.00
2022-12-03T08:45:32.439Z,2.00
2022-12-03T08:48:10.812Z,2.10
2022-12-03T08:50:42.346Z,2.10
2022-12-03T08:53:28.097Z,2.10
2022-12-03T08:55:57.824Z,2.10
2022-12-03T08:58:37.704Z,2.10
2022-12-03T09:01:10.919Z,2.10
2022-12-03T09:04:18.797Z,2.10
2022-12-03T09:06:46.025Z,2.20
2022-12-03T09:09:13.214Z,2.20
2022-12-03T09:11:40.463Z,2.20
2022-12-03T09:14:07.719Z,2.30
2022-12-03T09:16:34.961Z,2.30
2022-12-03T09:19:02.331Z,2.30
2022-12-03T09:21:29.456Z,2.30
2022-12-03T09:23:57.515Z,2.30
2022-12-03T09:26:24.678Z,2.30
2022-12-03T09:28:51.826Z,2.30
2022-12-03T09:31:19.734Z,2.30
2022-12-03T09:33:46.940Z,2.40
2022-12-03T09:36:14.097Z,2.40
2022-12-03T09:38:46.101Z,2.40
2022-12-03T09:41:15.431Z,2.30
2022-12-03T09:44:03.453Z,2.30
2022-12-03T09:46:30.437Z,2.30
2022-12-03T09:48:57.892Z,2.20
2022-12-03T09:51:32.877Z,2.20
2022-12-03T09:54:02.580Z,2.20
2022-12-03T09:56:30.009Z,2.30
2022-12-03T09:58:57.274Z,2.30
2022-12-03T10:01:29.984Z,2.30
2022-12-03T10:03:58.596Z,2.30
2022-12-03T10:06:25.866Z,2.30
2022-12-03T10:08:55.380Z,2.30
2022-12-03T10:11:24.981Z,2.30
2022-12-03T10:13:53.908Z,2.40
2022-12-03T10:16:21.501Z,2.40
2022-12-03T10:18:51.389Z,2.40
2022-12-03T10:21:32.730Z,2.50
2022-12-03T10:24:23.224Z,2.50
2022-12-03T10:26:52.900Z,2.50
2022-12-03T10:29:31.344Z,2.50
2022-12-03T10:32:06.586Z,2.60
2022-12-03T10:34:36.230Z,2.50
2022-12-03T10:37:23.817Z,2.50
2022-12-03T10:40:01.399Z,2.50
2022-12-03T10:42:31.161Z,2.50
2022-12-03T10:45:15.873Z,2.50
2022-12-03T10:47:43.889Z,2.50
2022-12-03T10:50:20.068Z,2.50
2022-12-03T10:52:47.851Z,2.50
2022-12-03T10:55:15.843Z,2.50
2022-12-03T10:57:46.064Z,2.60
2022-12-03T11:00:19.322Z,2.50
2022-12-03T11:02:53.296Z,2.50
2022-12-03T11:05:27.330Z,2.50
2022-12-03T11:07:55.028Z,2.50
2022-12-03T11:10:22.613Z,2.40
2022-12-03T11:13:26.823Z,2.40
2022-12-03T11:15:54.589Z,2.40
2022-12-03T11:18:36.341Z,2.50
2022-12-03T11:21:14.723Z,2.50
2022-12-03T11:23:44.756Z,2.50
2022-12-03T11:26:39.201Z,2.50
2022-12-03T11:29:14.601Z,2.50
2022-12-03T11:31:43.220Z,2.50
2022-12-03T11:34:22.539Z,2.50
2022-12-03T11:37:28.411Z,2.30
2022-12-03T11:39:56.027Z,2.40
2022-12-03T11:42:26.105Z,2.50
2022-12-03T11:45:10.969Z,2.50
2022-12-03T11:47:42.785Z,2.50
2022-12-03T11:50:28.985Z,2.60
2022-12-03T11:53:01.369Z,2.60
2022-12-03T11:55:44.251Z,2.60
2022-12-03T11:58:27.511Z,2.70
2022-12-03T12:00:57.033Z,2.70
2022-12-03T12:03:53.099Z,2.70
2022-12-03T12:06:22.121Z,2.70
2022-12-03T12:08:51.463Z,2.60
2022-12-03T12:11:30.566Z,2.60
2022-12-03T12:14:01.573Z,2.50
2022-12-03T12:16:41.328Z,2.50
2022-12-03T12:19:28.129Z,2.40
2022-12-03T12:21:56.463Z,2.40
2022-12-03T12:24:51.216Z,2.40
2022-12-03T12:27:45.483Z,2.40
2022-12-03T12:30:14.071Z,2.40
2022-12-03T12:33:01.365Z,2.40
2022-12-03T12:35:32.462Z,2.40
2022-12-03T12:38:10.792Z,2.40
2022-12-03T12:40:40.724Z,2.40
2022-12-03T12:43:15.277Z,2.40
2022-12-03T12:45:44.047Z,2.40
2022-12-03T12:48:27.486Z,2.40
2022-12-03T12:51:11.531Z,2.40
2022-12-03T12:53:40.156Z,2.40
2022-12-03T12:56:22.429Z,2.40
2022-12-03T12:58:49.779Z,2.40
2022-12-03T13:01:28.907Z,2.40
2022-12-03T13:03:56.998Z,2.40
2022-12-03T13:06:27.981Z,2.40
2022-12-03T13:08:55.606Z,2.40
2022-12-03T13:11:29.592Z,2.40
2022-12-03T13:13:56.798Z,2.40
2022-12-03T13:16:32.333Z,2.40
2022-12-03T13:19:01.278Z,2.50
2022-12-03T13:21:38.323Z,2.50
2022-12-03T13:24:59.918Z,2.50
2022-12-03T13:27:32.615Z,2.40
2022-12-03T13:30:16.694Z,2.30
2022-12-03T13:32:44.081Z,2.20
2022-12-03T13:35:27.737Z,2.20
2022-12-03T13:37:54.898Z,2.20
2022-12-03T13:40:31.016Z,2.20
2022-12-03T13:42:59.316Z,2.20
2022-12-03T13:45:37.297Z,2.20
2022-12-03T13:48:21.139Z,2.20
2022-12-03T13:50:48.639Z,2.20
2022-12-03T13:53:22.113Z,2.20
2022-12-03T13:56:15.750Z,2.10
2022-12-03T13:58:42.902Z,2.10
2022-12-03T14:01:10.373Z,2.10
2022-12-03T14:03:37.562Z,2.10
2022-12-03T14:06:04.827Z,2.10
2022-12-03T14:08:31.982Z,2.20
2022-12-03T14:11:00.868Z,2.20
2022-12-03T14:13:28.301Z,2.20
2022-12-03T14:15:55.616Z,2.20
2022-12-03T14:18:23.006Z,2.10
2022-12-03T14:20:50.244Z,2.20
2022-12-03T14:23:17.411Z,2.20
2022-12-03T14:25:44.531Z,2.20
2022-12-03T14:28:11.817Z,2.20
2022-12-03T14:30:39.002Z,2.20
2022-12-03T14:33:06.165Z,2.20
2022-12-03T14:35:33.303Z,2.10
2022-12-03T14:38:00.481Z,2.10
2022-12-03T14:40:27.655Z,2.10
2022-12-03T14:42:54.796Z,2.00
2022-12-03T14:45:22.915Z,2.00
2022-12-03T14:47:50.058Z,2.00
2022-12-03T14:50:17.326Z,2.00
2022-12-03T14:52:44.520Z,2.00
2022-12-03T14:55:11.691Z,2.00
2022-12-03T14:57:38.898Z,2.10
2022-12-03T15:00:08.306Z,2.00
2022-12-03T15:02:35.592Z,2.00
2022-12-03T15:05:02.999Z,2.00
2022-12-03T15:07:31.758Z,2.00
2022-12-03T15:09:58.963Z,2.10
2022-12-03T15:12:26.133Z,2.10
2022-12-03T15:14:53.346Z,2.10
2022-12-03T15:17:29.464Z,1.90
2022-12-03T15:19:58.638Z,1.80
2022-12-03T15:22:25.813Z,1.70
2022-12-03T15:24:52.974Z,1.70
2022-12-03T15:27:20.190Z,1.70
2022-12-03T15:29:47.349Z,1.80
2022-12-03T15:32:14.547Z,1.80
2022-12-03T15:34:41.710Z,1.80
2022-12-03T15:37:09.095Z,1.80
2022-12-03T15:39:37.499Z,1.80
2022-12-03T15:42:04.694Z,1.70
2022-12-03T15:44:31.823Z,1.80
2022-12-03T15:46:58.946Z,1.80
2022-12-03T15:49:26.119Z,1.80
2022-12-03T15:51:54.018Z,1.80
2022-12-03T15:54:21.164Z,1.80
2022-12-03T15:56:51.546Z,1.80
2022-12-03T15:59:22.788Z,1.70
2022-12-03T16:01:49.977Z,1.70
2022-12-03T16:04:17.167Z,1.70
2022-12-03T16:06:44.396Z,1.70
2022-12-03T16:09:11.584Z,1.70
2022-12-03T16:11:38.775Z,1.70
2022-12-03T16:14:05.945Z,1.70
2022-12-03T16:16:33.223Z,1.60
2022-12-03T16:19:00.467Z,1.60
2022-12-03T16:21:27.703Z,1.60
2022-12-03T16:23:55.714Z,1.60
2022-12-03T16:26:23.727Z,1.50
2022-12-03T16:28:50.931Z,1.50
2022-12-03T16:31:21.550Z,1.50
2022-12-03T16:33:48.840Z,1.40
2022-12-03T16:36:16.519Z,1.40
2022-12-03T16:38:43.688Z,1.40
2022-12-03T16:41:10.911Z,1.40
2022-12-03T16:43:38.940Z,1.40
2022-12-03T16:46:17.014Z,1.40
2022-12-03T16:48:44.388Z,1.40
2022-12-03T16:51:11.603Z,1.50
2022-12-03T16:53:40.104Z,1.50
2022-12-03T16:56:07.794Z,1.60
2022-12-03T16:58:34.929Z,1.50
2022-12-03T17:01:02.127Z,1.50
2022-12-03T17:03:33.870Z,1.50
2022-12-03T17:06:16.570Z,1.60
2022-12-03T17:08:49.113Z,1.60
2022-12-03T17:11:17.514Z,1.50
2022-12-03T17:13:45.746Z,1.50
2022-12-03T17:16:13.007Z,1.50
2022-12-03T17:18:40.378Z,1.50
2022-12-03T17:21:08.346Z,1.60
2022-12-03T17:23:35.697Z,1.50
2022-12-03T17:26:02.909Z,1.50
2022-12-03T17:28:30.158Z,1.50
2022-12-03T17:30:57.399Z,1.50
2022-12-03T17:33:25.643Z,1.50
2022-12-03T17:35:52.798Z,1.40
2022-12-03T17:38:19.963Z,1.40
2022-12-03T17:40:47.140Z,1.40
2022-12-03T17:43:14.279Z,1.40
2022-12-03T17:45:43.290Z,1.40
2022-12-03T17:48:10.546Z,1.40
2022-12-03T17:50:37.713Z,1.40
2022-12-03T17:53:07.814Z,1.40
2022-12-03T17:55:42.674Z,1.40
2022-12-03T17:58:13.310Z,1.40
2022-12-03T18:00:40.514Z,1.40
2022-12-03T18:03:07.716Z,1.40
2022-12-03T18:05:35.053Z,1.40
2022-12-03T18:08:02.434Z,1.30
2022-12-03T18:10:29.856Z,1.30
2022-12-03T18:13:01.485Z,1.30
2022-12-03T18:15:29.854Z,1.30
2022-12-03T18:17:57.026Z,1.30
2022-12-03T18:20:24.249Z,1.30
2022-12-03T18:22:51.647Z,1.30
2022-12-03T18:25:19.049Z,1.30
2022-12-03T18:27:46.706Z,1.30
2022-12-03T18:30:14.010Z,1.30
2022-12-03T18:32:41.222Z,1.30
2022-12-03T18:35:08.602Z,1.30
2022-12-03T18:37:35.991Z,1.30
2022-12-03T18:40:12.405Z,1.30
2022-12-03T18:42:40.404Z,1.30
2022-12-03T18:45:12.828Z,1.30
2022-12-03T18:47:40.310Z,1.30
2022-12-03T18:50:09.397Z,1.30
2022-12-03T18:52:36.856Z,1.30
2022-12-03T18:55:05.913Z,1.30
2022-12-03T18:57:33.123Z,1.30
2022-12-03T19:00:00.351Z,1.30
2022-12-03T19:05:14.720Z,1.30
2022-12-03T19:07:43.188Z,1.30
2022-12-03T19:10:11.746Z,1.30
2022-12-03T19:12:38.978Z,1.40
2022-12-03T19:15:06.834Z,1.40
2022-12-03T19:17:34.001Z,1.40
2022-12-03T19:20:01.211Z,1.40
2022-12-03T19:22:28.349Z,1.40
2022-12-03T19:24:55.483Z,1.40
2022-12-03T19:27:22.610Z,1.40
2022-12-03T19:29:49.840Z,1.40
2022-12-03T19:32:17.215Z,1.40
2022-12-03T19:34:44.435Z,1.40
2022-12-03T19:37:11.735Z,1.30
2022-12-03T19:39:38.950Z,1.30
2022-12-03T19:42:06.145Z,1.30
2022-12-03T19:44:33.418Z,1.30
2022-12-03T19:47:00.702Z,1.30
2022-12-03T19:49:28.044Z,1.30
2022-12-03T19:51:55.318Z,1.30
2022-12-03T19:54:22.534Z,1.30
2022-12-03T19:56:49.678Z,1.40
2022-12-03T19:59:16.868Z,1.40
2022-12-03T20:01:44.162Z,1.40
2022-12-03T20:04:12.142Z,1.40
2022-12-03T20:06:39.892Z,1.50
2022-12-03T20:09:13.444Z,1.40
2022-12-03T20:11:41.748Z,1.40
2022-12-03T20:14:12.048Z,1.40
2022-12-03T20:16:39.576Z,1.40
2022-12-03T20:19:08.295Z,1.40
2022-12-03T20:21:37.206Z,1.40
2022-12-03T20:24:05.452Z,1.50
2022-12-03T20:26:32.993Z,1.50
2022-12-03T20:29:00.564Z,1.50
2022-12-03T20:31:30.659Z,1.50
2022-12-03T20:34:01.006Z,1.50
2022-12-03T20:36:30.717Z,1.50
2022-12-03T20:39:00.012Z,1.50
2022-12-03T20:41:27.789Z,1.50
2022-12-03T20:43:55.326Z,1.40
2022-12-03T20:46:25.750Z,1.50
2022-12-03T20:48:53.965Z,1.50
2022-12-03T20:51:23.514Z,1.50
2022-12-03T20:53:50.863Z,1.50
2022-12-03T20:56:21.185Z,1.50
2022-12-03T20:58:49.516Z,1.50
2022-12-03T21:01:20.176Z,1.40
2022-12-03T21:03:48.626Z,1.40
2022-12-03T21:06:17.178Z,1.30
2022-12-03T21:08:44.623Z,1.30
2022-12-03T21:11:14.450Z,1.40
2022-12-03T21:13:43.431Z,1.40
2022-12-03T21:16:13.972Z,1.40
2022-12-03T21:18:42.099Z,1.40
2022-12-03T21:21:12.163Z,1.40
2022-12-03T21:23:39.430Z,1.40
2022-12-03T21:26:16.052Z,1.40
2022-12-03T21:28:44.619Z,1.40
2022-12-03T21:31:16.198Z,1.40
2022-12-03T21:33:43.670Z,1.40
2022-12-03T21:36:13.254Z,1.40
2022-12-03T21:38:41.248Z,1.40
2022-12-03T21:41:08.484Z,1.40
2022-12-03T21:43:36.079Z,1.40
2022-12-03T21:47:10.361Z,1.40
2022-12-03T21:49:00.193Z,1.40
2022-12-03T21:51:27.394Z,1.50
2022-12-03T21:53:54.656Z,1.50
2022-12-03T21:56:21.821Z,1.50
2022-12-03T21:58:49.013Z,1.60
2022-12-03T22:01:19.373Z,1.60
2022-12-03T22:03:46.987Z,1.60
2022-12-03T22:06:14.712Z,1.60
2022-12-03T22:08:42.373Z,1.60
2022-12-03T22:11:12.385Z,1.60
2022-12-03T22:13:40.813Z,1.60
2022-12-03T22:16:10.419Z,1.60
2022-12-03T22:18:37.621Z,1.60
2022-12-03T22:21:06.270Z,1.60
2022-12-03T22:23:34.182Z,1.60
2022-12-03T22:26:04.929Z,1.60
2022-12-03T22:28:33.083Z,1.60
2022-12-03T22:31:04.624Z,1.60
2022-12-03T22:33:31.863Z,1.60
2022-12-03T22:36:01.627Z,1.60
2022-12-03T22:38:29.978Z,1.50
2022-12-03T22:40:57.216Z,1.50
2022-12-03T22:43:24.837Z,1.60
2022-12-03T22:45:55.696Z,1.60
2022-12-03T22:48:23.475Z,1.60
2022-12-03T22:50:51.809Z,1.60
2022-12-03T22:53:21.127Z,1.60
2022-12-03T22:55:59.331Z,1.60
2022-12-03T22:58:27.776Z,1.60
2022-12-03T23:01:01.268Z,1.60
2022-12-03T23:03:30.390Z,1.70
2022-12-03T23:05:57.658Z,1.70
2022-12-03T23:08:24.879Z,1.70
2022-12-03T23:10:52.736Z,1.70
2022-12-03T23:13:20.575Z,1.80
2022-12-03T23:15:49.510Z,1.80
2022-12-03T23:18:17.814Z,1.80
2022-12-03T23:20:49.904Z,1.80
2022-12-03T23:23:18.054Z,1.70
2022-12-03T23:26:03.195Z,1.70
2022-12-03T23:28:32.607Z,1.70
2022-12-03T23:31:00.463Z,1.70
2022-12-03T23:33:28.430Z,1.60
2022-12-03T23:35:55.593Z,1.60
2022-12-03T23:38:22.875Z,1.60
2022-12-03T23:40:52.896Z,1.60
2022-12-03T23:43:20.079Z,1.60
2022-12-03T23:45:47.215Z,1.60
2022-12-03T23:48:14.374Z,1.60
2022-12-03T23:50:41.528Z,1.70
2022-12-03T23:53:09.004Z,1.60
2022-12-03T23:55:40.159Z,1.60
2022-12-03T23:58:07.362Z,1.70
